Time;durP1;ratioP1;P1;durP2;ratioP2;P2;SDS_P1;SDS_P2;PMS_P1;PMS_P2;Temp;Humidity;BMP_temperature;BMP_pressure;BME280_temperature;BME280_humidity;BME280_pressure;Samples;Min_cycle;Max_cycle;Signal;HPM_P1;HPM_P2
2022/03/12 00:00:43;;;;;;;2.38;0.60;;;25.70;49.60;;;;;;4993299;28;20202;-64
2022/03/12 00:03:13;;;;;;;1.55;0.40;;;25.70;49.40;;;;;;4993322;28;20232;-66
2022/03/12 00:05:52;;;;;;;0.60;0.50;;;25.70;49.40;;;;;;4993817;28;20605;-64
2022/03/12 00:08:24;;;;;;;0.85;0.50;;;25.70;49.90;;;;;;4993739;28;20194;-66
2022/03/12 00:10:55;;;;;;;1.40;0.65;;;25.80;49.40;;;;;;4993588;28;20252;-64
2022/03/12 00:13:26;;;;;;;2.22;0.70;;;25.80;49.20;;;;;;4993719;23;20229;-48
2022/03/12 00:15:59;;;;;;;1.73;0.68;;;25.80;49.10;;;;;;4973390;28;20257;-47
2022/03/12 00:18:31;;;;;;;1.48;0.80;;;25.90;49.10;;;;;;4973756;28;20289;-48
2022/03/12 00:21:04;;;;;;;1.27;0.60;;;25.90;49.00;;;;;;4972490;28;20816;-48
2022/03/12 00:23:34;;;;;;;2.33;0.98;;;25.90;48.80;;;;;;4972436;28;20229;-46
2022/03/12 00:26:06;;;;;;;1.02;0.55;;;26.00;48.90;;;;;;4954973;28;20198;-48
2022/03/12 00:28:36;;;;;;;1.45;0.80;;;26.00;48.80;;;;;;4961838;28;20194;-48
2022/03/12 00:31:07;;;;;;;2.50;0.75;;;26.10;48.80;;;;;;4971568;28;20210;-47
2022/03/12 00:33:37;;;;;;;2.10;0.63;;;26.10;48.70;;;;;;4973601;28;20674;-48
2022/03/12 00:36:11;;;;;;;1.58;0.75;;;26.10;48.50;;;;;;4973781;28;20198;-48
2022/03/12 00:38:42;;;;;;;1.40;0.60;;;26.20;48.50;;;;;;4973254;28;20234;-50
2022/03/12 00:41:13;;;;;;;1.00;0.60;;;26.20;48.40;;;;;;4973279;28;20253;-48
2022/03/12 00:43:43;;;;;;;1.73;0.82;;;26.20;48.40;;;;;;4973520;28;20776;-48
2022/03/12 00:46:14;;;;;;;2.10;1.00;;;26.20;48.40;;;;;;4972784;28;20195;-48
2022/03/12 00:48:45;;;;;;;2.33;0.90;;;26.20;48.40;;;;;;4973102;28;20198;-51
2022/03/12 00:51:17;;;;;;;2.75;0.90;;;26.20;48.30;;;;;;4973416;28;20312;-49
2022/03/12 00:53:48;;;;;;;1.58;0.70;;;26.20;48.20;;;;;;4973249;28;20217;-47
2022/03/12 00:56:18;;;;;;;1.80;0.90;;;26.30;48.40;;;;;;4972381;28;20198;-48
2022/03/12 00:58:49;;;;;;;1.27;0.65;;;26.30;48.40;;;;;;4972772;28;20257;-47
2022/03/12 01:01:20;;;;;;;2.83;1.00;;;26.40;48.40;;;;;;4972456;28;20202;-49
2022/03/12 01:03:52;;;;;;;1.88;0.80;;;26.40;48.40;;;;;;4972887;28;20852;-48
2022/03/12 01:06:25;;;;;;;1.42;0.70;;;26.40;48.40;;;;;;4972991;28;20202;-48
2022/03/12 01:08:55;;;;;;;2.20;0.80;;;26.40;48.30;;;;;;4972994;28;20198;-47
2022/03/12 01:11:26;;;;;;;5.75;0.95;;;26.50;48.30;;;;;;4953834;28;20631;-48
2022/03/12 02:13:36;;;;;;;3.03;1.17;;;26.70;47.80;;;;;;5570200;23;20248;-46
2022/03/12 02:16:15;;;;;;;6.75;1.30;;;26.70;47.80;;;;;;4971966;28;20605;-48
2022/03/12 02:18:50;;;;;;;4.00;1.33;;;26.80;47.80;;;;;;4971389;28;20587;-47
2022/03/12 02:21:34;;;;;;;2.67;1.20;;;26.70;47.80;;;;;;4971734;28;20276;-47
2022/03/12 02:24:08;;;;;;;2.80;1.30;;;26.80;47.80;;;;;;4971633;28;20305;-47
2022/03/12 02:26:42;;;;;;;6.18;1.35;;;26.80;47.80;;;;;;4963155;28;20198;-47
2022/03/12 02:29:13;;;;;;;5.30;1.13;;;26.80;47.80;;;;;;4952361;28;20326;-48
2022/03/12 02:31:45;;;;;;;4.15;1.30;;;26.80;47.80;;;;;;4952168;28;20288;-48
2022/03/12 02:34:19;;;;;;;4.82;1.17;;;26.80;47.70;;;;;;4960989;28;20617;-47
2022/03/12 02:36:50;;;;;;;5.32;1.30;;;26.80;47.80;;;;;;4971634;28;20234;-49
2022/03/12 02:39:24;;;;;;;2.70;1.10;;;26.80;47.70;;;;;;4971568;28;20198;-47
2022/03/12 02:41:56;;;;;;;2.80;0.93;;;26.80;47.80;;;;;;4971236;28;20205;-46
2022/03/12 02:44:28;;;;;;;6.82;1.55;;;26.80;47.80;;;;;;4970559;28;20214;-47
2022/03/12 02:47:16;;;;;;;4.70;1.20;;;26.90;48.00;;;;;;4971078;28;20200;-49
2022/03/12 02:49:51;;;;;;;2.33;1.10;;;26.80;47.70;;;;;;4970577;28;20194;-47
2022/03/12 02:52:22;;;;;;;4.72;1.40;;;26.90;47.90;;;;;;4971312;28;20222;-48
2022/03/12 02:54:55;;;;;;;4.15;1.30;;;26.90;47.80;;;;;;4971454;28;20229;-47
2022/03/12 02:57:27;;;;;;;1.90;1.02;;;26.90;47.70;;;;;;4971186;28;20205;-47
2022/03/12 03:00:04;;;;;;;2.92;1.20;;;26.90;47.80;;;;;;4971254;28;20205;-48
2022/03/12 03:02:39;;;;;;;4.95;1.20;;;26.90;47.80;;;;;;4970952;28;20253;-49
2022/03/12 03:05:15;;;;;;;2.63;1.02;;;26.90;47.70;;;;;;4971036;28;20595;-47
2022/03/12 03:07:46;;;;;;;2.33;1.15;;;26.90;47.80;;;;;;4958294;28;20203;-49
2022/03/12 03:10:31;;;;;;;3.42;1.08;;;26.90;47.70;;;;;;4971405;28;20202;-47
2022/03/12 03:13:01;;;;;;;5.57;1.27;;;26.90;47.70;;;;;;4971730;28;20221;-47
2022/03/12 03:15:36;;;;;;;3.42;1.30;;;26.90;47.40;;;;;;4971064;28;20218;-48
2022/03/12 03:18:11;;;;;;;2.85;1.15;;;26.90;47.40;;;;;;4971166;28;20292;-47
2022/03/12 03:20:42;;;;;;;4.75;1.20;;;26.90;47.50;;;;;;4970562;28;20288;-48
2022/03/12 03:23:13;;;;;;;3.97;1.27;;;27.00;47.50;;;;;;4970678;28;20202;-47
2022/03/12 03:25:46;;;;;;;2.88;0.93;;;26.90;47.40;;;;;;4969958;28;20623;-48
2022/03/12 03:28:16;;;;;;;3.65;1.30;;;27.00;47.50;;;;;;4961466;28;20225;-48
2022/03/12 03:30:47;;;;;;;2.90;1.20;;;27.00;47.50;;;;;;4951720;28;20199;-47
2022/03/12 03:33:20;;;;;;;3.15;1.30;;;26.90;47.50;;;;;;4951427;28;20277;-47
2022/03/12 03:35:51;;;;;;;2.33;1.20;;;27.00;47.60;;;;;;4970262;28;20277;-48
2022/03/12 03:38:22;;;;;;;3.13;1.40;;;27.00;47.70;;;;;;4970819;28;20198;-47
2022/03/12 03:40:54;;;;;;;2.72;1.13;;;27.00;47.60;;;;;;4971012;28;20202;-46
2022/03/12 03:43:26;;;;;;;2.60;1.40;;;27.00;47.60;;;;;;4970738;28;20557;-47
2022/03/12 03:45:58;;;;;;;3.10;1.17;;;27.00;47.60;;;;;;4953732;28;20254;-48
2022/03/12 03:48:29;;;;;;;2.08;0.90;;;27.00;47.80;;;;;;4951409;28;20205;-47
2022/03/12 03:50:59;;;;;;;4.40;1.60;;;27.00;47.90;;;;;;4971064;28;20233;-49
2022/03/12 03:53:30;;;;;;;2.15;1.00;;;27.00;47.80;;;;;;4970695;28;20229;-49
2022/03/12 03:56:03;;;;;;;3.78;1.40;;;27.00;47.80;;;;;;4974265;28;20198;-47
2022/03/12 03:58:34;;;;;;;5.18;1.35;;;27.00;47.80;;;;;;4974350;28;20623;-49
2022/03/12 04:01:07;;;;;;;4.72;1.42;;;27.00;47.80;;;;;;4974477;28;20205;-48
2022/03/12 04:03:38;;;;;;;6.03;1.55;;;27.00;47.60;;;;;;4974315;28;20306;-52
2022/03/12 04:06:09;;;;;;;2.63;1.10;;;27.00;47.60;;;;;;4974242;28;20213;-49
2022/03/12 04:08:41;;;;;;;6.45;1.60;;;27.00;47.70;;;;;;4974129;28;20698;-49
2022/03/12 04:11:18;;;;;;;5.63;1.52;;;26.90;47.60;;;;;;4973595;28;20198;-46
2022/03/12 04:13:49;;;;;;;6.07;1.65;;;26.90;47.50;;;;;;4998056;23;20284;-59
2022/03/12 04:16:21;;;;;;;4.53;1.52;;;26.90;47.60;;;;;;4993789;28;20198;-60
2022/03/12 04:18:52;;;;;;;6.45;1.73;;;26.90;47.60;;;;;;4992902;28;20200;-59
2022/03/12 04:21:23;;;;;;;8.23;2.00;;;26.90;47.60;;;;;;4992934;28;20197;-57
2022/03/12 04:23:53;;;;;;;8.77;1.98;;;26.90;47.70;;;;;;4993375;28;20275;-59
2022/03/12 04:26:26;;;;;;;4.13;1.40;;;26.90;47.60;;;;;;4992954;28;20505;-59
2022/03/12 04:28:58;;;;;;;4.95;1.90;;;26.80;47.40;;;;;;4993188;28;20650;-60
2022/03/12 04:31:28;;;;;;;5.45;1.60;;;26.80;47.60;;;;;;4993170;28;20200;-55
2022/03/12 04:34:00;;;;;;;3.15;1.45;;;26.80;47.70;;;;;;4992592;28;20248;-59
2022/03/12 04:36:34;;;;;;;6.30;1.73;;;26.80;47.90;;;;;;4990317;28;20194;-60
2022/03/12 04:39:05;;;;;;;5.13;1.70;;;26.80;47.80;;;;;;4988977;28;20203;-59
2022/03/12 04:41:39;;;;;;;5.72;1.52;;;26.80;47.90;;;;;;4990097;28;20257;-61
2022/03/12 04:44:11;;;;;;;5.15;1.48;;;26.80;47.90;;;;;;4989742;28;20212;-60
2022/03/12 04:46:42;;;;;;;4.35;1.60;;;26.80;48.00;;;;;;4990508;28;20240;-56
2022/03/12 04:49:13;;;;;;;6.68;1.70;;;26.70;47.90;;;;;;4990449;28;20272;-60
2022/03/12 04:51:44;;;;;;;4.43;2.00;;;26.70;47.60;;;;;;4991981;28;20665;-59
2022/03/12 04:54:14;;;;;;;5.10;1.88;;;26.70;47.40;;;;;;4991234;28;20226;-55
2022/03/12 04:56:47;;;;;;;5.65;1.55;;;26.70;47.20;;;;;;4990586;28;20252;-59
2022/03/12 04:59:17;;;;;;;9.15;1.55;;;26.60;47.00;;;;;;4989796;28;20205;-60
2022/03/12 05:01:49;;;;;;;9.40;2.15;;;26.60;46.90;;;;;;4990340;28;20197;-60
2022/03/12 05:04:20;;;;;;;9.10;2.05;;;26.60;46.70;;;;;;4990578;28;20229;-56
2022/03/12 05:06:50;;;;;;;5.18;1.75;;;26.60;46.50;;;;;;4989474;28;20194;-60
2022/03/12 05:09:22;;;;;;;8.25;2.08;;;26.50;46.10;;;;;;4989788;28;20259;-61
2022/03/12 05:11:54;;;;;;;12.57;3.97;;;26.50;46.10;;;;;;4990600;28;20193;-59
2022/03/12 05:14:25;;;;;;;21.92;6.00;;;26.50;46.30;;;;;;4990794;28;20229;-59
2022/03/12 05:32:20;;;;;;;11.70;3.33;;;26.30;47.00;;;;;;5172556;23;20260;-52
2022/03/12 05:34:51;;;;;;;11.88;3.38;;;26.30;47.10;;;;;;4982476;28;20222;-55
2022/03/12 05:37:22;;;;;;;12.88;3.60;;;26.30;47.20;;;;;;4990561;28;20251;-54
2022/03/12 05:39:54;;;;;;;12.65;3.50;;;26.30;47.30;;;;;;4990100;28;20680;-54
2022/03/12 05:42:26;;;;;;;10.80;3.17;;;26.20;47.10;;;;;;4990504;28;20202;-50
2022/03/12 05:44:57;;;;;;;11.00;2.95;;;26.20;47.30;;;;;;4990872;28;20702;-55
2022/03/12 05:47:34;;;;;;;11.30;3.13;;;26.20;47.30;;;;;;4990264;28;20189;-53
2022/03/12 05:50:09;;;;;;;9.15;3.17;;;26.20;47.20;;;;;;4990026;28;20651;-55
2022/03/12 05:52:40;;;;;;;10.82;2.92;;;26.20;47.20;;;;;;4989877;28;20225;-51
2022/03/12 05:55:12;;;;;;;9.02;3.10;;;26.20;47.20;;;;;;4990085;28;20224;-55
2022/03/12 05:57:42;;;;;;;8.57;2.70;;;26.20;47.20;;;;;;4989521;28;20205;-50
2022/03/12 06:00:15;;;;;;;7.95;2.72;;;26.10;47.20;;;;;;4990229;28;20197;-53
2022/03/12 06:02:51;;;;;;;7.80;2.88;;;26.10;47.20;;;;;;4989779;28;20649;-52
2022/03/12 06:05:23;;;;;;;9.50;3.25;;;26.10;47.20;;;;;;4990260;28;20776;-48
2022/03/12 06:07:54;;;;;;;11.25;3.10;;;26.10;47.20;;;;;;4989804;28;20193;-51
2022/03/12 06:10:26;;;;;;;7.93;2.88;;;26.10;47.30;;;;;;4989566;28;20189;-54
2022/03/12 06:12:58;;;;;;;8.13;2.78;;;26.00;47.30;;;;;;4990012;28;20225;-57
2022/03/12 06:15:30;;;;;;;7.70;2.63;;;26.00;47.40;;;;;;4989351;28;20301;-50
2022/03/12 06:18:02;;;;;;;7.50;3.05;;;26.00;47.40;;;;;;4989430;28;20198;-51
2022/03/12 06:20:35;;;;;;;7.78;2.92;;;25.90;47.40;;;;;;4989251;28;20609;-54
2022/03/12 06:23:05;;;;;;;7.20;2.92;;;26.00;47.70;;;;;;4991256;28;20204;-53
2022/03/12 06:25:37;;;;;;;7.93;2.60;;;25.90;47.60;;;;;;4991805;23;20242;-48
2022/03/12 06:28:07;;;;;;;9.02;3.03;;;25.90;47.70;;;;;;4959729;28;20195;-49
2022/03/12 06:30:41;;;;;;;8.38;2.30;;;25.90;47.70;;;;;;4950127;28;20194;-48
2022/03/12 06:33:14;;;;;;;8.90;2.90;;;25.90;47.70;;;;;;4950164;29;20227;-48
2022/03/12 06:35:46;;;;;;;5.80;2.35;;;25.90;47.80;;;;;;4969551;28;20198;-48
2022/03/12 06:38:17;;;;;;;5.22;2.10;;;25.80;47.80;;;;;;4969350;28;20209;-49
2022/03/12 06:40:47;;;;;;;6.18;2.63;;;25.80;47.80;;;;;;4971025;28;20202;-49
2022/03/12 06:43:18;;;;;;;6.63;2.20;;;25.80;47.90;;;;;;4970727;28;20213;-47
2022/03/12 06:45:49;;;;;;;7.75;2.70;;;25.80;47.80;;;;;;4970967;28;20250;-49
2022/03/12 06:48:22;;;;;;;5.93;2.28;;;25.80;47.80;;;;;;4970864;28;20198;-50
2022/03/12 06:50:53;;;;;;;8.40;2.42;;;25.80;47.80;;;;;;4970823;28;20749;-48
2022/03/12 06:53:23;;;;;;;6.28;2.53;;;25.80;47.80;;;;;;4970545;28;20277;-47
2022/03/12 06:55:54;;;;;;;5.32;2.20;;;25.70;47.80;;;;;;4971160;28;20198;-49
2022/03/12 06:58:25;;;;;;;7.53;2.28;;;25.70;47.90;;;;;;4970911;28;20264;-48
2022/03/12 07:00:55;;;;;;;6.53;2.63;;;25.70;47.90;;;;;;4970905;28;20559;-48
2022/03/12 07:03:28;;;;;;;6.50;2.30;;;25.70;47.90;;;;;;4970097;28;20202;-47
2022/03/12 07:05:59;;;;;;;5.95;2.20;;;25.60;47.90;;;;;;4970505;28;20728;-51
2022/03/12 07:08:29;;;;;;;5.65;2.30;;;25.60;47.90;;;;;;4970188;28;20205;-49
2022/03/12 07:11:01;;;;;;;5.05;2.22;;;25.60;48.00;;;;;;4970371;28;20217;-47
2022/03/12 07:13:32;;;;;;;7.65;2.42;;;25.60;48.00;;;;;;4970159;28;20232;-49
2022/03/12 07:16:03;;;;;;;6.55;2.15;;;25.60;48.00;;;;;;4970090;28;20202;-47
2022/03/12 07:18:35;;;;;;;6.03;2.42;;;25.60;48.00;;;;;;4970164;28;20201;-47
2022/03/12 07:21:06;;;;;;;5.95;2.55;;;25.50;48.00;;;;;;4970694;28;20681;-47
2022/03/12 07:23:37;;;;;;;6.50;2.20;;;25.50;48.10;;;;;;4969844;28;20768;-47
2022/03/12 07:26:07;;;;;;;5.20;2.25;;;25.50;48.10;;;;;;4971179;28;20257;-47
2022/03/12 07:28:38;;;;;;;6.22;2.38;;;25.50;48.10;;;;;;4970991;28;20209;-48
2022/03/12 07:31:09;;;;;;;6.43;2.10;;;25.50;48.10;;;;;;4974841;28;20202;-47
2022/03/12 07:33:41;;;;;;;4.68;2.33;;;25.50;48.10;;;;;;4974078;28;20236;-48
2022/03/12 07:36:12;;;;;;;5.25;2.13;;;25.50;48.10;;;;;;4974727;28;20201;-46
2022/03/12 07:38:42;;;;;;;4.70;1.95;;;25.50;48.10;;;;;;4974363;28;20253;-48
2022/03/12 07:41:13;;;;;;;4.25;2.08;;;25.50;48.20;;;;;;4974517;28;20272;-49
2022/03/12 07:43:44;;;;;;;5.63;2.22;;;25.40;48.20;;;;;;4974184;28;20769;-45
2022/03/12 07:46:15;;;;;;;6.85;2.08;;;25.40;48.20;;;;;;4970491;28;20616;-47
2022/03/12 07:48:47;;;;;;;6.03;2.55;;;25.40;48.40;;;;;;4968401;28;20198;-48
2022/03/12 07:51:18;;;;;;;5.82;2.38;;;25.40;48.30;;;;;;4972309;28;20257;-48
2022/03/12 07:53:48;;;;;;;4.88;2.17;;;25.40;48.40;;;;;;4967808;28;20278;-46
2022/03/12 07:56:19;;;;;;;7.78;2.50;;;25.30;48.40;;;;;;4964148;28;20198;-47
2022/03/12 07:58:49;;;;;;;6.45;2.25;;;25.30;48.40;;;;;;4964088;28;20190;-48
2022/03/12 08:01:20;;;;;;;6.57;2.50;;;25.30;48.40;;;;;;4968488;28;20202;-47
2022/03/12 08:03:53;;;;;;;7.25;2.72;;;25.30;48.50;;;;;;4971509;28;20218;-46
2022/03/12 08:06:23;;;;;;;5.85;2.30;;;25.30;48.50;;;;;;4970217;28;20253;-47
2022/03/12 08:08:54;;;;;;;9.25;3.08;;;25.30;48.50;;;;;;4971759;28;20202;-45
2022/03/12 08:11:28;;;;;;;6.88;2.25;;;25.30;48.60;;;;;;4970227;28;20202;-47
2022/03/12 08:14:00;;;;;;;5.57;2.13;;;25.20;48.50;;;;;;4971475;28;20598;-47
2022/03/12 08:16:32;;;;;;;6.05;2.60;;;25.20;48.60;;;;;;4972101;28;20200;-46
2022/03/12 08:19:06;;;;;;;6.68;2.75;;;25.20;48.50;;;;;;4971861;28;20285;-48
2022/03/12 08:21:38;;;;;;;9.15;2.38;;;25.20;48.50;;;;;;4970385;28;20191;-47
2022/03/12 08:24:16;;;;;;;4.93;2.30;;;25.20;48.50;;;;;;4970996;28;20242;-47
2022/03/12 08:26:48;;;;;;;5.80;2.15;;;25.10;48.50;;;;;;4971376;28;20202;-46
2022/03/12 08:29:19;;;;;;;4.50;2.30;;;25.20;48.60;;;;;;4971529;28;20198;-46
2022/03/12 08:31:50;;;;;;;6.85;2.03;;;25.10;48.60;;;;;;4971829;28;20194;-48
2022/03/12 08:34:23;;;;;;;4.03;1.95;;;25.10;48.60;;;;;;4968616;28;20234;-47
2022/03/12 08:36:53;;;;;;;5.22;2.33;;;25.10;48.60;;;;;;4970932;28;20910;-45
2022/03/12 08:39:24;;;;;;;5.30;2.28;;;25.10;48.60;;;;;;4967562;28;20223;-47
2022/03/12 08:41:55;;;;;;;5.15;2.25;;;25.10;48.70;;;;;;4969718;28;20269;-47
2022/03/12 08:44:26;;;;;;;5.35;2.25;;;25.10;48.70;;;;;;4969921;28;20226;-46
2022/03/12 08:46:56;;;;;;;4.97;1.75;;;25.00;48.70;;;;;;4970417;28;20206;-46
2022/03/12 08:49:29;;;;;;;5.25;2.45;;;25.00;48.70;;;;;;4969247;28;20249;-47
2022/03/12 08:52:00;;;;;;;4.53;2.22;;;25.00;48.70;;;;;;4970342;28;20201;-47
2022/03/12 08:54:31;;;;;;;6.10;2.40;;;25.00;48.70;;;;;;4971480;28;20690;-46
2022/03/12 08:57:02;;;;;;;4.65;2.00;;;24.90;48.70;;;;;;4970587;28;20202;-46
2022/03/12 08:59:33;;;;;;;4.72;1.92;;;25.00;48.80;;;;;;4969833;28;20453;-48
2022/03/12 09:02:04;;;;;;;3.78;1.80;;;24.90;48.70;;;;;;4971752;28;20253;-47
2022/03/12 09:04:36;;;;;;;3.90;1.95;;;24.90;48.80;;;;;;4969793;28;20214;-47
2022/03/12 09:07:07;;;;;;;3.60;1.80;;;24.90;48.80;;;;;;4964184;28;20670;-46
2022/03/12 09:09:38;;;;;;;5.03;2.20;;;24.90;48.80;;;;;;4966224;28;20237;-47
2022/03/12 09:12:09;;;;;;;4.88;2.20;;;24.90;48.80;;;;;;4969744;28;20256;-47
2022/03/12 09:14:39;;;;;;;3.28;2.10;;;24.90;48.90;;;;;;4970344;28;20273;-47
2022/03/12 09:17:10;;;;;;;5.57;2.35;;;24.90;48.90;;;;;;4970710;28;20202;-46
2022/03/12 09:19:43;;;;;;;7.25;2.58;;;24.80;48.80;;;;;;4970392;28;20289;-48
2022/03/12 09:22:13;;;;;;;3.97;1.83;;;24.80;48.90;;;;;;4970083;28;20277;-47
2022/03/12 09:24:44;;;;;;;5.40;1.77;;;24.80;48.90;;;;;;4971372;28;20284;-47
2022/03/12 09:27:15;;;;;;;4.88;2.17;;;24.80;48.90;;;;;;4970315;28;20249;-47
2022/03/12 09:29:45;;;;;;;3.40;1.70;;;24.80;48.90;;;;;;4968780;28;20225;-46
2022/03/12 09:32:16;;;;;;;3.20;1.92;;;24.80;49.00;;;;;;4968722;28;20338;-49
2022/03/12 09:34:48;;;;;;;4.95;2.10;;;24.70;48.90;;;;;;4970354;28;20891;-47
2022/03/12 09:37:19;;;;;;;4.55;2.05;;;24.70;49.00;;;;;;4970471;28;20245;-47
2022/03/12 09:39:50;;;;;;;3.58;1.95;;;24.70;49.00;;;;;;4970624;28;20202;-47
2022/03/12 09:42:20;;;;;;;4.70;1.77;;;24.70;49.00;;;;;;4970726;28;20264;-46
2022/03/12 09:44:51;;;;;;;5.18;2.33;;;24.70;49.00;;;;;;4970641;28;20218;-47
2022/03/12 09:47:22;;;;;;;3.85;1.95;;;24.70;49.00;;;;;;4970466;28;20295;-48
2022/03/12 09:49:54;;;;;;;3.80;1.75;;;24.70;49.10;;;;;;4970763;28;20198;-47
2022/03/12 09:52:25;;;;;;;4.43;2.15;;;24.60;49.00;;;;;;4973383;28;20273;-47
2022/03/12 09:54:56;;;;;;;4.85;2.10;;;24.60;49.10;;;;;;4971057;28;20732;-48
2022/03/12 09:57:26;;;;;;;3.92;2.13;;;24.60;49.10;;;;;;4972049;28;20253;-48
2022/03/12 09:59:57;;;;;;;4.85;1.85;;;24.60;49.10;;;;;;4972092;28;20272;-50
2022/03/12 10:02:28;;;;;;;4.43;1.92;;;24.60;49.10;;;;;;4972180;28;20194;-47
2022/03/12 10:05:01;;;;;;;4.60;2.00;;;24.60;49.10;;;;;;4971386;28;20301;-50
2022/03/12 10:07:32;;;;;;;3.28;1.70;;;24.50;49.10;;;;;;4972156;28;20261;-49
2022/03/12 10:10:02;;;;;;;2.92;1.63;;;24.50;49.10;;;;;;4971879;28;20202;-49
2022/03/12 10:12:33;;;;;;;5.13;1.98;;;24.50;49.20;;;;;;4971918;28;20198;-49
2022/03/12 10:15:03;;;;;;;2.65;1.38;;;24.50;49.20;;;;;;4971465;28;20229;-48
2022/03/12 10:17:34;;;;;;;4.05;1.52;;;24.50;49.20;;;;;;4971852;28;20198;-50
2022/03/12 10:20:08;;;;;;;3.35;1.75;;;24.50;49.20;;;;;;4971232;28;20280;-50
2022/03/12 10:22:39;;;;;;;4.97;2.00;;;24.50;49.30;;;;;;4971677;28;20696;-49
2022/03/12 10:25:12;;;;;;;3.47;1.60;;;24.40;49.20;;;;;;4971168;28;20218;-49
2022/03/12 10:27:43;;;;;;;3.17;1.77;;;24.40;49.20;;;;;;4971395;28;20202;-50
2022/03/12 10:30:14;;;;;;;3.33;1.90;;;24.40;49.30;;;;;;4971800;28;20848;-49
2022/03/12 10:32:46;;;;;;;4.57;1.77;;;24.40;49.30;;;;;;4971392;28;20195;-49
2022/03/12 10:35:20;;;;;;;4.30;1.75;;;24.40;49.30;;;;;;4970862;28;20320;-49
2022/03/12 10:37:54;;;;;;;2.70;1.58;;;24.40;49.30;;;;;;4971298;28;20224;-48
2022/03/12 10:40:26;;;;;;;3.40;1.90;;;24.40;49.30;;;;;;4971367;28;20780;-48
2022/03/12 10:43:02;;;;;;;3.33;1.88;;;24.30;49.30;;;;;;4971794;28;20198;-49
2022/03/12 10:45:40;;;;;;;3.33;1.60;;;24.30;49.30;;;;;;4971189;28;20438;-47
2022/03/12 10:48:12;;;;;;;4.07;1.85;;;24.30;49.40;;;;;;4971051;28;20197;-49
2022/03/12 10:50:46;;;;;;;2.97;1.50;;;24.30;49.40;;;;;;4971006;28;20205;-50
2022/03/12 10:53:17;;;;;;;4.38;1.85;;;24.30;49.40;;;;;;4971117;28;20194;-48
2022/03/12 10:55:49;;;;;;;3.78;1.80;;;24.30;49.40;;;;;;4970925;28;20312;-49
2022/03/12 10:58:24;;;;;;;2.67;1.70;;;24.30;49.40;;;;;;4971381;28;20249;-48
2022/03/12 11:00:56;;;;;;;3.83;1.60;;;24.30;49.40;;;;;;4971212;28;20261;-48
2022/03/12 11:03:28;;;;;;;3.22;1.50;;;24.20;49.40;;;;;;4970310;28;20246;-51
2022/03/12 11:06:01;;;;;;;2.40;1.55;;;24.20;49.40;;;;;;4970509;28;20867;-49
2022/03/12 11:08:33;;;;;;;3.33;1.63;;;24.20;49.50;;;;;;4971174;28;20257;-48
2022/03/12 11:11:09;;;;;;;2.95;1.65;;;24.20;49.50;;;;;;4971113;28;20206;-49
2022/03/12 11:13:41;;;;;;;3.97;1.83;;;24.20;49.50;;;;;;4971017;28;20573;-48
2022/03/12 11:16:17;;;;;;;3.95;2.03;;;24.20;49.50;;;;;;4971037;28;20595;-50
2022/03/12 11:18:59;;;;;;;3.63;1.70;;;24.10;49.50;;;;;;4970715;28;20661;-50
2022/03/12 11:21:33;;;;;;;2.58;1.52;;;24.10;49.60;;;;;;4970328;28;20265;-48
2022/03/12 11:24:04;;;;;;;4.13;1.60;;;24.10;49.60;;;;;;4970513;28;20222;-48
2022/03/12 11:26:45;;;;;;;3.88;1.90;;;24.10;49.60;;;;;;4970898;28;20213;-49
2022/03/12 11:29:17;;;;;;;3.75;1.80;;;24.10;49.60;;;;;;4971032;28;20276;-49
2022/03/12 11:31:50;;;;;;;3.40;1.60;;;24.10;49.60;;;;;;4971121;28;20205;-49
2022/03/12 11:34:23;;;;;;;4.47;1.60;;;24.00;49.60;;;;;;4970229;28;20222;-48
2022/03/12 11:37:12;;;;;;;3.60;2.00;;;24.00;49.70;;;;;;4970083;28;20674;-50
2022/03/12 11:39:44;;;;;;;3.35;1.40;;;24.00;50.20;;;;;;4970557;28;20261;-48
2022/03/12 11:42:16;;;;;;;3.15;1.60;;;24.00;49.70;;;;;;4970852;28;20206;-49
2022/03/12 11:44:48;;;;;;;5.30;1.75;;;24.00;49.70;;;;;;4970982;28;20714;-50
2022/03/12 11:47:20;;;;;;;3.08;1.45;;;24.00;49.70;;;;;;4970789;28;20561;-50
2022/03/12 11:49:52;;;;;;;3.20;1.65;;;24.00;49.70;;;;;;4970693;28;20245;-48
2022/03/12 11:52:25;;;;;;;3.67;1.50;;;24.00;49.70;;;;;;4969681;28;20202;-49
2022/03/12 11:54:56;;;;;;;2.83;1.35;;;24.00;49.80;;;;;;4970353;28;20277;-49
2022/03/12 11:57:30;;;;;;;2.53;1.40;;;23.90;49.70;;;;;;4970548;28;20562;-50
2022/03/12 12:00:01;;;;;;;3.05;1.42;;;24.00;49.80;;;;;;4970629;28;20206;-49
2022/03/12 12:02:33;;;;;;;2.42;1.48;;;23.90;49.80;;;;;;4970596;28;20202;-50
2022/03/12 12:05:06;;;;;;;3.58;1.60;;;23.90;49.80;;;;;;4970655;28;20218;-49
2022/03/12 12:07:39;;;;;;;3.85;1.85;;;23.90;49.80;;;;;;4970479;28;20199;-52
2022/03/12 12:10:12;;;;;;;4.38;1.90;;;23.90;49.80;;;;;;4970359;28;20674;-49
2022/03/12 12:12:43;;;;;;;2.83;1.30;;;23.80;49.80;;;;;;4970603;28;20198;-49
2022/03/12 12:15:20;;;;;;;3.55;1.60;;;23.80;49.80;;;;;;4970824;28;20241;-49
2022/03/12 12:17:51;;;;;;;2.28;1.40;;;23.80;49.90;;;;;;4972747;28;20182;-49
2022/03/12 12:20:23;;;;;;;4.78;1.70;;;23.80;49.90;;;;;;4973347;28;20202;-49
2022/03/12 12:22:55;;;;;;;3.40;1.63;;;23.80;49.90;;;;;;4973413;28;20702;-49
2022/03/12 12:25:27;;;;;;;5.07;1.75;;;23.80;50.00;;;;;;4974181;28;20257;-52
2022/03/12 12:27:58;;;;;;;2.80;1.58;;;23.80;50.00;;;;;;4973970;28;20202;-50
2022/03/12 12:30:40;;;;;;;3.60;1.67;;;23.80;50.00;;;;;;4973945;28;20202;-49
2022/03/12 12:33:22;;;;;;;2.83;1.58;;;23.70;50.00;;;;;;4973720;28;20202;-49
2022/03/12 12:35:54;;;;;;;4.25;1.58;;;23.70;50.00;;;;;;4973320;28;20741;-50
2022/03/12 12:38:26;;;;;;;2.83;1.48;;;23.70;50.00;;;;;;4973827;28;20194;-50
2022/03/12 12:40:59;;;;;;;2.92;1.50;;;23.70;50.00;;;;;;4973450;28;20257;-49
2022/03/12 12:43:37;;;;;;;3.38;1.30;;;23.70;50.00;;;;;;4973014;28;20665;-48
2022/03/12 12:46:13;;;;;;;3.60;1.50;;;23.70;50.10;;;;;;4973822;28;20245;-50
2022/03/12 12:48:48;;;;;;;3.58;1.52;;;23.70;50.20;;;;;;4973563;28;20197;-49
2022/03/12 12:51:20;;;;;;;3.65;1.45;;;23.70;50.20;;;;;;4973216;28;20649;-52
2022/03/12 12:53:53;;;;;;;2.38;1.50;;;23.60;50.10;;;;;;4973545;28;20214;-50
2022/03/12 12:56:29;;;;;;;2.85;1.27;;;23.60;50.20;;;;;;4973209;28;20226;-49
2022/03/12 12:59:14;;;;;;;3.10;1.30;;;23.60;50.20;;;;;;4972949;28;20233;-49
2022/03/12 13:01:59;;;;;;;3.17;1.48;;;23.60;50.20;;;;;;4972860;28;20744;-49
2022/03/12 13:04:51;;;;;;;2.85;1.30;;;23.60;50.20;;;;;;4972371;28;20877;-51
2022/03/12 13:07:28;;;;;;;2.30;1.40;;;23.60;50.30;;;;;;4972538;28;20198;-51
2022/03/12 13:10:05;;;;;;;4.18;1.45;;;23.50;50.30;;;;;;4973213;28;20684;-52
2022/03/12 13:12:46;;;;;;;2.53;1.25;;;23.50;50.30;;;;;;4972772;28;20257;-49
2022/03/12 13:15:25;;;;;;;2.63;1.27;;;23.50;50.40;;;;;;4971876;28;20312;-52
2022/03/12 13:17:56;;;;;;;2.83;1.25;;;23.50;50.40;;;;;;4972696;28;20284;-54
2022/03/12 13:20:36;;;;;;;2.15;1.20;;;23.50;50.40;;;;;;4972833;28;20209;-51
2022/03/12 13:23:07;;;;;;;3.40;1.60;;;23.50;50.40;;;;;;4972274;28;20241;-50
2022/03/12 13:25:51;;;;;;;2.88;1.40;;;23.50;50.40;;;;;;4992110;23;20221;-58
2022/03/12 13:28:44;;;;;;;2.58;1.33;;;23.50;50.40;;;;;;4991696;28;20201;-57
2022/03/12 13:31:33;;;;;;;2.50;1.20;;;23.40;50.40;;;;;;4992370;28;20289;-58
2022/03/12 13:34:11;;;;;;;2.88;1.38;;;23.40;50.50;;;;;;4991968;28;20218;-59
2022/03/12 13:36:42;;;;;;;1.92;1.10;;;23.40;50.50;;;;;;4963176;28;20221;-58
2022/03/12 13:39:16;;;;;;;3.15;1.60;;;23.40;50.50;;;;;;4991902;28;20206;-58
2022/03/12 13:41:51;;;;;;;3.53;1.38;;;23.40;50.60;;;;;;4992184;28;20268;-58
2022/03/12 13:44:22;;;;;;;2.42;1.10;;;23.40;50.60;;;;;;4991360;28;20263;-58
2022/03/12 13:46:56;;;;;;;1.98;1.13;;;23.40;50.60;;;;;;4991581;28;20208;-59
2022/03/12 13:49:27;;;;;;;1.85;0.95;;;23.30;50.60;;;;;;4987722;28;20232;-58
2022/03/12 13:51:58;;;;;;;1.73;1.13;;;23.30;50.60;;;;;;4976593;28;20197;-59
2022/03/12 13:54:29;;;;;;;2.30;1.20;;;23.30;50.70;;;;;;4991190;28;20221;-59
2022/03/12 13:57:02;;;;;;;1.88;1.17;;;23.30;50.70;;;;;;4991310;28;20485;-59
2022/03/12 13:59:35;;;;;;;1.58;1.25;;;23.30;50.70;;;;;;4991845;28;20584;-59
2022/03/12 14:02:12;;;;;;;1.88;1.15;;;23.30;50.70;;;;;;4991997;28;20225;-59
2022/03/12 14:04:42;;;;;;;1.77;1.00;;;23.30;50.70;;;;;;4986796;28;20317;-59
2022/03/12 14:07:18;;;;;;;2.35;1.23;;;23.30;50.70;;;;;;4979581;28;20209;-58
2022/03/12 14:09:49;;;;;;;2.10;1.30;;;23.20;50.70;;;;;;4991194;28;20224;-59
2022/03/12 14:12:26;;;;;;;2.30;1.10;;;23.30;50.80;;;;;;4991357;28;20201;-59
2022/03/12 14:15:00;;;;;;;2.05;1.10;;;23.20;50.80;;;;;;4988758;28;20279;-59
2022/03/12 14:17:32;;;;;;;2.45;1.30;;;23.30;50.90;;;;;;4955851;28;20191;-59
2022/03/12 14:20:06;;;;;;;3.33;1.38;;;23.20;50.80;;;;;;4952265;28;20580;-59
2022/03/12 14:22:37;;;;;;;1.60;1.10;;;23.20;50.80;;;;;;4967371;28;20202;-59
2022/03/12 14:40:52;;;;;;;2.28;1.25;;;23.10;50.90;;;;;;5990505;23;20194;-53
2022/03/12 14:45:50;;;;;;;2.92;1.33;;;23.00;50.90;;;;;;4996954;23;20776;-53